createdAt,value
2022-09-30T00:04:28.109Z,1.42
2022-09-30T00:10:42.046Z,1.20
2022-09-30T00:16:57.521Z,1.05
2022-09-30T00:23:08.786Z,1.10
2022-09-30T00:29:18.787Z,1.35
2022-09-30T00:35:33.328Z,0.85
2022-09-30T00:41:44.992Z,1.20
2022-09-30T00:47:56.897Z,0.90
2022-09-30T00:54:11.480Z,0.72
2022-09-30T01:00:19.981Z,1.22
2022-09-30T01:06:30.768Z,1.05
2022-09-30T01:12:43.100Z,1.27
2022-09-30T01:19:07.457Z,0.65
2022-09-30T01:25:53.687Z,1.25
2022-09-30T01:32:09.751Z,1.37
2022-09-30T01:38:25.509Z,0.88
2022-09-30T01:44:39.945Z,0.90
2022-09-30T01:50:58.547Z,0.82
2022-09-30T01:57:16.318Z,0.70
2022-09-30T02:03:31.610Z,1.02
2022-09-30T02:09:45.073Z,1.45
2022-09-30T02:16:00.199Z,1.30
2022-09-30T02:22:12.859Z,1.05
2022-09-30T02:28:27.927Z,1.17
2022-09-30T02:34:38.228Z,2.05
2022-09-30T02:40:50.912Z,1.90
2022-09-30T02:47:07.440Z,1.47
2022-09-30T02:59:34.960Z,2.20
2022-09-30T03:05:47.543Z,1.35
2022-09-30T03:11:59.831Z,1.45
2022-09-30T03:18:25.322Z,1.67
2022-09-30T03:24:44.294Z,0.93
2022-09-30T03:30:57.040Z,1.05
2022-09-30T03:37:14.263Z,1.05
2022-09-30T03:43:26.407Z,1.50
2022-09-30T03:49:38.498Z,0.98
2022-09-30T03:55:53.625Z,1.57
2022-09-30T04:02:07.816Z,1.75
2022-09-30T04:08:17.660Z,1.65
2022-09-30T04:14:28.472Z,1.37
2022-09-30T04:20:42.122Z,1.85
2022-09-30T04:26:53.050Z,0.98
2022-09-30T04:33:03.032Z,2.05
2022-09-30T04:39:12.448Z,1.17
2022-09-30T04:45:22.657Z,0.88
2022-09-30T04:51:34.950Z,1.92
2022-09-30T04:57:46.379Z,1.20
2022-09-30T05:03:59.423Z,1.07
2022-09-30T05:10:18.819Z,1.85
2022-09-30T05:16:28.602Z,1.20
2022-09-30T05:22:40.558Z,1.35
2022-09-30T05:28:49.673Z,1.32
2022-09-30T05:34:58.365Z,1.05
2022-09-30T05:41:17.486Z,1.72
2022-09-30T05:47:29.428Z,2.02
2022-09-30T05:53:40.060Z,1.50
2022-09-30T05:59:49.952Z,2.75
2022-09-30T06:06:02.389Z,1.80
2022-09-30T06:12:12.423Z,2.27
2022-09-30T06:18:25.113Z,2.58
2022-09-30T06:24:37.775Z,2.95
2022-09-30T06:30:50.383Z,3.25
2022-09-30T06:37:00.196Z,2.90
2022-09-30T06:43:12.032Z,3.67
2022-09-30T06:49:22.752Z,3.25
2022-09-30T06:55:33.915Z,4.05
2022-09-30T07:01:45.910Z,2.45
2022-09-30T07:07:56.918Z,1.92
2022-09-30T07:14:07.293Z,2.50
2022-09-30T07:20:18.544Z,3.17
2022-09-30T07:26:31.352Z,2.02
2022-09-30T07:32:45.667Z,1.30
2022-09-30T07:38:58.556Z,2.72
2022-09-30T07:45:13.274Z,1.80
2022-09-30T07:51:24.875Z,2.20
2022-09-30T07:57:38.110Z,1.77
2022-09-30T08:03:51.810Z,1.65
2022-09-30T08:10:00.913Z,1.85
2022-09-30T08:16:11.070Z,1.65
2022-09-30T08:22:21.928Z,2.02
2022-09-30T08:28:35.250Z,2.17
2022-09-30T08:34:47.223Z,2.35
2022-09-30T08:41:00.947Z,1.10
2022-09-30T08:47:18.018Z,1.82
2022-09-30T08:53:31.661Z,1.87
2022-09-30T08:59:46.981Z,1.85
2022-09-30T09:05:57.394Z,2.10
2022-09-30T09:12:12.029Z,1.65
2022-09-30T09:18:38.614Z,1.87
2022-09-30T09:24:49.028Z,1.10
2022-09-30T09:31:04.014Z,1.45
2022-09-30T09:37:17.849Z,1.30
2022-09-30T09:43:35.612Z,1.60
2022-09-30T09:49:47.349Z,1.35
2022-09-30T09:55:57.836Z,1.60
2022-09-30T10:02:17.491Z,1.10
2022-09-30T10:08:27.811Z,1.85
2022-09-30T10:14:38.825Z,1.85
2022-09-30T10:20:55.191Z,1.05
2022-09-30T10:27:07.120Z,1.67
2022-09-30T10:33:24.829Z,1.12
2022-09-30T10:39:35.378Z,1.22
2022-09-30T10:46:01.331Z,1.12
2022-09-30T10:52:03.468Z,1.27
2022-09-30T10:58:30.864Z,1.40
2022-09-30T11:04:45.786Z,1.35
2022-09-30T11:10:58.460Z,1.77
2022-09-30T11:17:12.432Z,1.62
2022-09-30T11:23:27.595Z,1.07
2022-09-30T11:29:43.436Z,1.10
2022-09-30T11:36:00.001Z,0.80
2022-09-30T11:48:33.118Z,1.50
2022-09-30T11:54:52.257Z,0.93
2022-09-30T12:01:03.786Z,1.35
2022-09-30T12:07:14.911Z,0.93
2022-09-30T12:13:27.454Z,1.27
2022-09-30T12:19:43.709Z,1.52
2022-09-30T12:25:57.634Z,1.07
2022-09-30T12:32:21.567Z,1.30
2022-09-30T12:38:42.386Z,1.42
2022-09-30T12:45:43.147Z,0.88
2022-09-30T12:51:56.283Z,1.82
2022-09-30T12:58:09.869Z,1.12
2022-09-30T13:04:37.588Z,1.47
2022-09-30T13:10:56.260Z,1.25
2022-09-30T13:17:27.974Z,0.85
2022-09-30T13:23:59.031Z,1.12
2022-09-30T13:30:34.413Z,1.47
2022-09-30T13:36:50.994Z,1.32
2022-09-30T13:43:03.281Z,1.12
2022-09-30T13:49:19.318Z,1.25
2022-09-30T13:55:30.268Z,1.27
2022-09-30T14:01:50.147Z,1.90
2022-09-30T14:08:24.182Z,1.85
2022-09-30T14:14:51.259Z,1.40
2022-09-30T14:21:15.919Z,1.10
2022-09-30T14:27:40.280Z,1.37
2022-09-30T14:33:53.809Z,2.22
2022-09-30T14:40:07.362Z,1.35
2022-09-30T14:46:22.967Z,1.82
2022-09-30T14:52:46.871Z,1.67
2022-09-30T14:59:01.643Z,1.45
2022-09-30T15:05:16.269Z,1.70
2022-09-30T15:11:27.862Z,3.95
2022-09-30T15:17:43.927Z,3.50
2022-09-30T15:23:57.791Z,3.35
2022-09-30T15:30:12.572Z,2.33
2022-09-30T15:36:26.509Z,2.70
2022-09-30T15:42:36.950Z,2.22
2022-09-30T15:48:47.897Z,2.73
2022-09-30T15:55:01.541Z,2.00
2022-09-30T16:01:32.065Z,1.40
2022-09-30T16:07:44.224Z,1.50
2022-09-30T16:13:59.220Z,1.77
2022-09-30T16:20:12.773Z,2.40
2022-09-30T16:26:27.475Z,1.30
2022-09-30T16:32:46.593Z,1.72
2022-09-30T16:39:00.017Z,1.62
2022-09-30T16:45:15.460Z,1.35
2022-09-30T16:51:30.064Z,1.52
2022-09-30T16:57:42.760Z,1.50
2022-09-30T17:03:56.410Z,1.35
2022-09-30T17:10:06.532Z,1.43
2022-09-30T17:16:20.114Z,0.80
2022-09-30T17:22:31.169Z,0.90
2022-09-30T17:28:42.486Z,1.30
2022-09-30T17:34:56.078Z,0.88
2022-09-30T17:41:20.914Z,1.67
2022-09-30T17:47:32.358Z,1.20
2022-09-30T17:53:44.618Z,0.70
2022-09-30T17:59:57.459Z,0.88
2022-09-30T18:06:10.871Z,0.98
2022-09-30T18:12:23.289Z,0.60
2022-09-30T18:18:35.673Z,0.90
2022-09-30T18:25:05.833Z,1.10
2022-09-30T18:31:18.524Z,1.10
2022-09-30T18:37:29.817Z,0.40
2022-09-30T18:43:44.778Z,0.62
2022-09-30T18:49:57.896Z,1.02
2022-09-30T18:56:10.402Z,0.70
2022-09-30T19:02:25.981Z,0.80
2022-09-30T19:08:36.138Z,0.80
2022-09-30T19:14:51.408Z,0.75
2022-09-30T19:21:13.603Z,0.60
2022-09-30T19:27:28.935Z,0.72
2022-09-30T19:33:54.936Z,0.70
2022-09-30T19:39:56.977Z,0.33
2022-09-30T19:46:12.430Z,0.65
2022-09-30T19:52:28.734Z,0.95
2022-09-30T19:58:41.902Z,0.40
2022-09-30T20:04:51.757Z,0.50
2022-09-30T20:11:11.148Z,0.75
2022-09-30T20:17:23.127Z,0.60
2022-09-30T20:23:35.299Z,0.55
2022-09-30T20:29:47.483Z,0.57
2022-09-30T20:36:02.616Z,0.72
2022-09-30T20:42:12.254Z,1.17
2022-09-30T20:48:25.914Z,1.30
2022-09-30T20:54:39.006Z,0.80
2022-09-30T21:00:52.523Z,0.68
2022-09-30T21:07:04.500Z,0.70
2022-09-30T21:13:19.880Z,1.20
2022-09-30T21:19:33.639Z,1.03
2022-09-30T21:25:46.638Z,0.85
2022-09-30T21:32:03.014Z,0.70
2022-09-30T21:38:18.879Z,0.75
2022-09-30T21:44:35.534Z,1.70
2022-09-30T21:50:48.517Z,0.90
2022-09-30T21:57:01.600Z,1.50
2022-09-30T22:03:24.839Z,1.20
2022-09-30T22:09:39.585Z,1.02
2022-09-30T22:15:52.633Z,0.72
2022-09-30T22:22:06.577Z,1.55
2022-09-30T22:28:22.807Z,1.00
2022-09-30T22:34:47.857Z,1.07
2022-09-30T22:41:05.209Z,0.55
2022-09-30T22:47:21.438Z,0.55
2022-09-30T22:53:31.265Z,0.85
2022-09-30T22:59:41.621Z,0.50
2022-09-30T23:05:53.666Z,0.78
2022-09-30T23:12:06.398Z,1.17
2022-09-30T23:18:17.902Z,1.60
2022-09-30T23:24:31.965Z,0.93
2022-09-30T23:30:44.955Z,0.85
2022-09-30T23:37:01.143Z,1.10
2022-09-30T23:43:13.905Z,1.60
2022-09-30T23:49:25.396Z,0.70
2022-09-30T23:55:40.464Z,0.60
